CheckWX is a tool to help pilots better visualize weather data.  It is not intended as a substitute for an official pre-flight weather briefing.

07:19:10 UTC

FAPE METAR
Port Elizabeth Airport
Port Elizabeth, South Africa
Current

19 mins ago

FAPE 210700Z 30007KT CAVOK 15/05 Q1024 NOSIG
Observed
May-21 @ 07:00 UTC
Wind
  • 300° at 7 KTS
Visibility
10,000+ meters
Flight Rules
VFR
Cloud Levels
  • Clear skies
Temperature
15°C / 59°F
Dewpoint
C / 41°F
Humidity
51%
Altimeter
30.24" Hg
Pressure
1023.92 hPa
Previous

42 mins ago

FAPE 210637Z 31007KT 270V330 CAVOK 14/04 Q1023 NOSIG
Observed
May-21 @ 06:37 UTC
Wind
  • 310° at 7 KTS
Visibility
10,000+ meters
Flight Rules
VFR
Cloud Levels
  • Clear skies
Temperature
14°C / 57°F
Dewpoint
C / 39°F
Humidity
51%
Altimeter
30.21" Hg
Pressure
1022.92 hPa
Previous

1 hour ago

FAPE 210600Z 29007KT CAVOK 11/04 Q1023 NOSIG
Observed
May-21 @ 06:00 UTC
Wind
  • 290° at 7 KTS
Visibility
10,000+ meters
Flight Rules
VFR
Cloud Levels
  • Clear skies
Temperature
11°C / 52°F
Dewpoint
C / 39°F
Humidity
62%
Altimeter
30.21" Hg
Pressure
1022.92 hPa